sensor_id;sensor_type;location;lat;lon;timestamp;P1;durP1;ratioP1;P2;durP2;ratioP2
71856;SDS011;59712;46.980;28.882;2022-07-23T00:01:48;5.63;;;3.25;;
71856;SDS011;59712;46.980;28.882;2022-07-23T00:04:16;7.93;;;3.58;;
71856;SDS011;59712;46.980;28.882;2022-07-23T00:06:43;6.65;;;3.35;;
71856;SDS011;59712;46.980;28.882;2022-07-23T00:09:10;5.45;;;2.85;;
71856;SDS011;59712;46.980;28.882;2022-07-23T00:11:37;6.53;;;3.15;;
71856;SDS011;59712;46.980;28.882;2022-07-23T00:14:05;5.82;;;3.22;;
71856;SDS011;59712;46.980;28.882;2022-07-23T00:16:32;7.47;;;3.42;;
71856;SDS011;59712;46.980;28.882;2022-07-23T00:19:00;6.45;;;2.72;;
71856;SDS011;59712;46.980;28.882;2022-07-23T00:21:30;6.45;;;3.55;;
71856;SDS011;59712;46.980;28.882;2022-07-23T00:23:57;6.40;;;3.90;;
71856;SDS011;59712;46.980;28.882;2022-07-23T00:26:25;14.15;;;4.03;;
71856;SDS011;59712;46.980;28.882;2022-07-23T00:28:52;10.75;;;4.28;;
71856;SDS011;59712;46.980;28.882;2022-07-23T00:31:19;8.07;;;3.42;;
71856;SDS011;59712;46.980;28.882;2022-07-23T00:33:46;10.85;;;4.28;;
71856;SDS011;59712;46.980;28.882;2022-07-23T00:36:13;5.85;;;3.72;;
71856;SDS011;59712;46.980;28.882;2022-07-23T00:38:41;10.13;;;3.70;;
71856;SDS011;59712;46.980;28.882;2022-07-23T00:41:08;10.15;;;3.50;;
71856;SDS011;59712;46.980;28.882;2022-07-23T00:43:35;9.50;;;3.67;;
71856;SDS011;59712;46.980;28.882;2022-07-23T00:46:02;10.50;;;3.85;;
71856;SDS011;59712;46.980;28.882;2022-07-23T00:48:29;5.97;;;3.83;;
71856;SDS011;59712;46.980;28.882;2022-07-23T00:50:57;7.68;;;3.92;;
71856;SDS011;59712;46.980;28.882;2022-07-23T00:53:24;8.30;;;4.05;;
71856;SDS011;59712;46.980;28.882;2022-07-23T00:55:51;9.23;;;4.70;;
71856;SDS011;59712;46.980;28.882;2022-07-23T00:58:20;8.45;;;4.13;;
71856;SDS011;59712;46.980;28.882;2022-07-23T01:00:47;11.80;;;4.05;;
71856;SDS011;59712;46.980;28.882;2022-07-23T01:03:14;12.75;;;4.18;;
71856;SDS011;59712;46.980;28.882;2022-07-23T01:05:41;10.40;;;4.55;;
71856;SDS011;59712;46.980;28.882;2022-07-23T01:08:08;7.82;;;3.90;;
71856;SDS011;59712;46.980;28.882;2022-07-23T01:10:35;9.07;;;3.60;;
71856;SDS011;59712;46.980;28.882;2022-07-23T01:13:05;13.65;;;4.05;;
71856;SDS011;59712;46.980;28.882;2022-07-23T01:15:34;8.73;;;4.38;;
71856;SDS011;59712;46.980;28.882;2022-07-23T01:20:31;10.88;;;4.32;;
71856;SDS011;59712;46.980;28.882;2022-07-23T01:22:58;9.07;;;3.53;;
71856;SDS011;59712;46.980;28.882;2022-07-23T01:25:26;9.60;;;4.40;;
71856;SDS011;59712;46.980;28.882;2022-07-23T01:27:54;11.02;;;4.22;;
71856;SDS011;59712;46.980;28.882;2022-07-23T01:30:21;6.80;;;4.00;;
71856;SDS011;59712;46.980;28.882;2022-07-23T01:32:48;7.45;;;3.50;;
71856;SDS011;59712;46.980;28.882;2022-07-23T01:35:15;16.23;;;4.00;;
71856;SDS011;59712;46.980;28.882;2022-07-23T01:37:42;10.85;;;4.93;;
71856;SDS011;59712;46.980;28.882;2022-07-23T01:40:09;9.05;;;3.80;;
71856;SDS011;59712;46.980;28.882;2022-07-23T01:42:37;8.85;;;4.40;;
71856;SDS011;59712;46.980;28.882;2022-07-23T01:45:05;12.90;;;4.40;;
71856;SDS011;59712;46.980;28.882;2022-07-23T01:50:01;13.30;;;4.47;;
71856;SDS011;59712;46.980;28.882;2022-07-23T01:52:28;11.32;;;4.13;;
71856;SDS011;59712;46.980;28.882;2022-07-23T01:54:55;8.32;;;4.40;;
71856;SDS011;59712;46.980;28.882;2022-07-23T01:57:22;10.63;;;4.20;;
71856;SDS011;59712;46.980;28.882;2022-07-23T01:59:49;15.38;;;5.07;;
71856;SDS011;59712;46.980;28.882;2022-07-23T02:02:16;11.43;;;3.88;;
71856;SDS011;59712;46.980;28.882;2022-07-23T02:04:44;14.45;;;5.03;;
71856;SDS011;59712;46.980;28.882;2022-07-23T02:07:11;8.90;;;4.53;;
71856;SDS011;59712;46.980;28.882;2022-07-23T02:09:38;10.05;;;4.35;;
71856;SDS011;59712;46.980;28.882;2022-07-23T02:12:06;9.32;;;3.95;;
71856;SDS011;59712;46.980;28.882;2022-07-23T02:14:33;8.57;;;4.38;;
71856;SDS011;59712;46.980;28.882;2022-07-23T02:17:04;11.93;;;4.63;;
71856;SDS011;59712;46.980;28.882;2022-07-23T02:19:31;14.50;;;4.53;;
71856;SDS011;59712;46.980;28.882;2022-07-23T02:21:58;7.18;;;4.85;;
71856;SDS011;59712;46.980;28.882;2022-07-23T02:24:26;7.18;;;4.47;;
71856;SDS011;59712;46.980;28.882;2022-07-23T02:26:53;8.60;;;3.95;;
71856;SDS011;59712;46.980;28.882;2022-07-23T02:29:20;13.73;;;5.00;;
71856;SDS011;59712;46.980;28.882;2022-07-23T02:31:47;8.60;;;4.25;;
71856;SDS011;59712;46.980;28.882;2022-07-23T02:34:14;15.00;;;5.22;;
71856;SDS011;59712;46.980;28.882;2022-07-23T02:36:41;12.40;;;5.47;;
71856;SDS011;59712;46.980;28.882;2022-07-23T02:39:08;11.90;;;5.22;;
71856;SDS011;59712;46.980;28.882;2022-07-23T02:41:35;9.20;;;5.28;;
71856;SDS011;59712;46.980;28.882;2022-07-23T02:44:03;14.38;;;5.20;;
71856;SDS011;59712;46.980;28.882;2022-07-23T02:46:30;9.70;;;4.70;;
71856;SDS011;59712;46.980;28.882;2022-07-23T02:48:57;9.57;;;4.00;;
71856;SDS011;59712;46.980;28.882;2022-07-23T02:51:25;10.40;;;4.70;;
71856;SDS011;59712;46.980;28.882;2022-07-23T02:53:52;12.23;;;4.97;;
71856;SDS011;59712;46.980;28.882;2022-07-23T02:56:19;13.55;;;5.05;;
71856;SDS011;59712;46.980;28.882;2022-07-23T02:58:46;10.57;;;4.47;;
71856;SDS011;59712;46.980;28.882;2022-07-23T03:01:14;8.15;;;4.53;;
71856;SDS011;59712;46.980;28.882;2022-07-23T03:03:46;8.68;;;3.90;;
71856;SDS011;59712;46.980;28.882;2022-07-23T03:06:13;11.20;;;4.40;;
71856;SDS011;59712;46.980;28.882;2022-07-23T03:08:41;13.57;;;5.20;;
71856;SDS011;59712;46.980;28.882;2022-07-23T03:11:08;10.85;;;4.43;;
71856;SDS011;59712;46.980;28.882;2022-07-23T03:13:38;8.57;;;5.18;;
71856;SDS011;59712;46.980;28.882;2022-07-23T03:16:05;11.05;;;5.30;;
71856;SDS011;59712;46.980;28.882;2022-07-23T03:18:33;9.35;;;4.68;;
71856;SDS011;59712;46.980;28.882;2022-07-23T03:21:06;9.55;;;4.72;;
71856;SDS011;59712;46.980;28.882;2022-07-23T03:23:34;6.95;;;3.97;;
71856;SDS011;59712;46.980;28.882;2022-07-23T03:26:01;13.05;;;4.78;;
71856;SDS011;59712;46.980;28.882;2022-07-23T03:28:28;10.50;;;4.97;;
71856;SDS011;59712;46.980;28.882;2022-07-23T03:30:55;9.60;;;5.20;;
71856;SDS011;59712;46.980;28.882;2022-07-23T03:33:23;11.90;;;4.43;;
71856;SDS011;59712;46.980;28.882;2022-07-23T03:35:50;8.80;;;5.70;;
71856;SDS011;59712;46.980;28.882;2022-07-23T03:38:17;11.45;;;4.70;;
71856;SDS011;59712;46.980;28.882;2022-07-23T03:40:47;14.23;;;5.45;;
71856;SDS011;59712;46.980;28.882;2022-07-23T03:43:14;10.65;;;5.00;;
71856;SDS011;59712;46.980;28.882;2022-07-23T03:45:41;9.93;;;4.80;;
71856;SDS011;59712;46.980;28.882;2022-07-23T03:48:08;12.38;;;5.55;;
71856;SDS011;59712;46.980;28.882;2022-07-23T03:50:35;9.60;;;5.22;;
71856;SDS011;59712;46.980;28.882;2022-07-23T03:55:31;12.07;;;5.07;;
71856;SDS011;59712;46.980;28.882;2022-07-23T03:57:58;9.27;;;5.10;;
71856;SDS011;59712;46.980;28.882;2022-07-23T04:00:25;14.63;;;5.95;;
71856;SDS011;59712;46.980;28.882;2022-07-23T04:02:52;8.55;;;4.95;;
71856;SDS011;59712;46.980;28.882;2022-07-23T04:05:19;11.63;;;5.63;;
71856;SDS011;59712;46.980;28.882;2022-07-23T04:07:46;10.27;;;5.10;;
71856;SDS011;59712;46.980;28.882;2022-07-23T04:10:13;12.02;;;6.15;;
71856;SDS011;59712;46.980;28.882;2022-07-23T04:12:42;14.20;;;5.80;;
71856;SDS011;59712;46.980;28.882;2022-07-23T04:15:09;11.23;;;6.25;;
71856;SDS011;59712;46.980;28.882;2022-07-23T04:17:36;9.35;;;5.20;;
71856;SDS011;59712;46.980;28.882;2022-07-23T04:20:03;8.30;;;5.13;;
71856;SDS011;59712;46.980;28.882;2022-07-23T04:22:31;11.15;;;6.38;;
71856;SDS011;59712;46.980;28.882;2022-07-23T04:24:58;9.55;;;6.32;;
71856;SDS011;59712;46.980;28.882;2022-07-23T04:27:25;13.07;;;6.05;;
71856;SDS011;59712;46.980;28.882;2022-07-23T04:29:52;13.38;;;6.18;;
71856;SDS011;59712;46.980;28.882;2022-07-23T04:32:20;13.73;;;6.75;;
71856;SDS011;59712;46.980;28.882;2022-07-23T04:34:47;18.55;;;9.90;;
71856;SDS011;59712;46.980;28.882;2022-07-23T04:37:14;11.80;;;5.60;;
71856;SDS011;59712;46.980;28.882;2022-07-23T04:39:42;11.30;;;6.40;;
71856;SDS011;59712;46.980;28.882;2022-07-23T04:42:09;8.80;;;5.30;;
71856;SDS011;59712;46.980;28.882;2022-07-23T04:44:36;11.80;;;6.22;;
71856;SDS011;59712;46.980;28.882;2022-07-23T04:47:04;13.45;;;6.55;;
71856;SDS011;59712;46.980;28.882;2022-07-23T04:49:31;11.75;;;6.32;;
71856;SDS011;59712;46.980;28.882;2022-07-23T04:51:58;11.02;;;5.95;;
71856;SDS011;59712;46.980;28.882;2022-07-23T04:54:27;12.55;;;6.22;;
71856;SDS011;59712;46.980;28.882;2022-07-23T04:56:55;10.00;;;5.68;;
71856;SDS011;59712;46.980;28.882;2022-07-23T04:59:22;16.42;;;7.57;;
71856;SDS011;59712;46.980;28.882;2022-07-23T05:01:50;11.88;;;5.93;;
71856;SDS011;59712;46.980;28.882;2022-07-23T05:04:17;12.27;;;6.18;;
71856;SDS011;59712;46.980;28.882;2022-07-23T05:06:44;15.38;;;5.82;;
71856;SDS011;59712;46.980;28.882;2022-07-23T05:09:12;12.50;;;5.88;;
71856;SDS011;59712;46.980;28.882;2022-07-23T05:14:07;14.75;;;6.35;;
71856;SDS011;59712;46.980;28.882;2022-07-23T05:16:35;16.95;;;6.22;;
71856;SDS011;59712;46.980;28.882;2022-07-23T05:19:06;15.32;;;6.18;;
71856;SDS011;59712;46.980;28.882;2022-07-23T05:21:33;12.30;;;5.72;;
71856;SDS011;59712;46.980;28.882;2022-07-23T05:24:01;14.98;;;5.85;;
71856;SDS011;59712;46.980;28.882;2022-07-23T05:26:32;11.10;;;5.43;;
71856;SDS011;59712;46.980;28.882;2022-07-23T05:29:07;8.52;;;5.18;;
71856;SDS011;59712;46.980;28.882;2022-07-23T05:31:34;10.75;;;4.95;;
71856;SDS011;59712;46.980;28.882;2022-07-23T05:34:02;10.90;;;5.80;;
71856;SDS011;59712;46.980;28.882;2022-07-23T05:36:31;7.30;;;4.60;;
71856;SDS011;59712;46.980;28.882;2022-07-23T05:38:58;12.68;;;6.07;;
71856;SDS011;59712;46.980;28.882;2022-07-23T05:41:26;8.57;;;4.43;;
71856;SDS011;59712;46.980;28.882;2022-07-23T05:43:53;14.38;;;5.40;;
71856;SDS011;59712;46.980;28.882;2022-07-23T05:48:48;9.75;;;4.95;;
71856;SDS011;59712;46.980;28.882;2022-07-23T05:51:21;12.43;;;5.38;;
71856;SDS011;59712;46.980;28.882;2022-07-23T05:53:49;9.10;;;4.78;;
71856;SDS011;59712;46.980;28.882;2022-07-23T05:58:44;12.95;;;4.18;;
71856;SDS011;59712;46.980;28.882;2022-07-23T06:01:13;16.77;;;5.03;;
71856;SDS011;59712;46.980;28.882;2022-07-23T06:03:42;11.70;;;4.60;;
71856;SDS011;59712;46.980;28.882;2022-07-23T06:06:10;13.63;;;5.38;;
71856;SDS011;59712;46.980;28.882;2022-07-23T06:08:52;22.73;;;8.57;;
71856;SDS011;59712;46.980;28.882;2022-07-23T06:11:19;15.18;;;5.22;;
71856;SDS011;59712;46.980;28.882;2022-07-23T06:13:46;16.15;;;4.53;;
71856;SDS011;59712;46.980;28.882;2022-07-23T06:16:14;14.13;;;4.90;;
71856;SDS011;59712;46.980;28.882;2022-07-23T06:18:41;14.07;;;4.75;;
71856;SDS011;59712;46.980;28.882;2022-07-23T06:21:10;11.88;;;4.63;;
71856;SDS011;59712;46.980;28.882;2022-07-23T06:23:57;8.52;;;3.70;;
71856;SDS011;59712;46.980;28.882;2022-07-23T06:28:54;12.82;;;4.00;;
71856;SDS011;59712;46.980;28.882;2022-07-23T06:31:25;12.38;;;4.25;;
71856;SDS011;59712;46.980;28.882;2022-07-23T06:33:52;11.07;;;3.67;;
71856;SDS011;59712;46.980;28.882;2022-07-23T06:36:19;13.43;;;3.97;;
71856;SDS011;59712;46.980;28.882;2022-07-23T06:38:46;16.45;;;3.53;;
71856;SDS011;59712;46.980;28.882;2022-07-23T06:41:14;15.10;;;3.85;;
71856;SDS011;59712;46.980;28.882;2022-07-23T06:43:45;37.70;;;12.38;;
71856;SDS011;59712;46.980;28.882;2022-07-23T06:46:12;10.50;;;3.25;;
71856;SDS011;59712;46.980;28.882;2022-07-23T06:54:02;17.02;;;3.60;;
71856;SDS011;59712;46.980;28.882;2022-07-23T06:56:30;11.50;;;3.70;;
71856;SDS011;59712;46.980;28.882;2022-07-23T06:58:57;10.60;;;3.28;;
71856;SDS011;59712;46.980;28.882;2022-07-23T07:03:52;15.70;;;3.50;;
71856;SDS011;59712;46.980;28.882;2022-07-23T07:06:21;12.05;;;3.60;;
71856;SDS011;59712;46.980;28.882;2022-07-23T07:08:50;12.77;;;3.85;;
71856;SDS011;59712;46.980;28.882;2022-07-23T07:11:18;8.15;;;3.47;;
71856;SDS011;59712;46.980;28.882;2022-07-23T07:13:45;10.18;;;3.65;;
71856;SDS011;59712;46.980;28.882;2022-07-23T07:16:12;8.85;;;4.32;;
71856;SDS011;59712;46.980;28.882;2022-07-23T07:18:40;7.15;;;3.33;;
71856;SDS011;59712;46.980;28.882;2022-07-23T07:21:12;8.18;;;2.97;;
71856;SDS011;59712;46.980;28.882;2022-07-23T07:23:40;7.85;;;3.20;;
71856;SDS011;59712;46.980;28.882;2022-07-23T07:26:07;7.80;;;2.75;;
71856;SDS011;59712;46.980;28.882;2022-07-23T07:28:34;4.40;;;2.58;;
71856;SDS011;59712;46.980;28.882;2022-07-23T07:31:02;12.48;;;3.72;;
71856;SDS011;59712;46.980;28.882;2022-07-23T07:33:29;6.32;;;3.45;;
71856;SDS011;59712;46.980;28.882;2022-07-23T07:35:56;7.95;;;3.17;;
71856;SDS011;59712;46.980;28.882;2022-07-23T07:38:25;11.30;;;2.80;;
71856;SDS011;59712;46.980;28.882;2022-07-23T07:40:52;6.80;;;2.78;;
71856;SDS011;59712;46.980;28.882;2022-07-23T07:43:30;8.32;;;2.50;;
71856;SDS011;59712;46.980;28.882;2022-07-23T07:46:03;7.90;;;2.65;;
71856;SDS011;59712;46.980;28.882;2022-07-23T07:48:31;4.32;;;2.70;;
71856;SDS011;59712;46.980;28.882;2022-07-23T07:50:58;9.57;;;4.10;;
71856;SDS011;59712;46.980;28.882;2022-07-23T07:53:28;8.15;;;2.70;;
71856;SDS011;59712;46.980;28.882;2022-07-23T07:55:56;8.73;;;2.45;;
71856;SDS011;59712;46.980;28.882;2022-07-23T07:58:28;4.57;;;2.30;;
71856;SDS011;59712;46.980;28.882;2022-07-23T08:00:56;2.53;;;2.20;;
71856;SDS011;59712;46.980;28.882;2022-07-23T08:03:24;3.90;;;2.10;;
71856;SDS011;59712;46.980;28.882;2022-07-23T08:05:51;4.07;;;2.47;;
71856;SDS011;59712;46.980;28.882;2022-07-23T08:08:18;6.65;;;2.80;;
71856;SDS011;59712;46.980;28.882;2022-07-23T08:10:50;3.95;;;2.42;;
71856;SDS011;59712;46.980;28.882;2022-07-23T08:13:17;5.13;;;2.45;;
71856;SDS011;59712;46.980;28.882;2022-07-23T08:15:44;9.00;;;2.45;;
71856;SDS011;59712;46.980;28.882;2022-07-23T08:18:12;3.78;;;2.10;;
71856;SDS011;59712;46.980;28.882;2022-07-23T08:20:39;5.13;;;2.40;;
71856;SDS011;59712;46.980;28.882;2022-07-23T08:23:07;2.10;;;1.70;;
71856;SDS011;59712;46.980;28.882;2022-07-23T08:25:37;7.00;;;2.60;;
71856;SDS011;59712;46.980;28.882;2022-07-23T08:28:07;4.60;;;2.20;;
71856;SDS011;59712;46.980;28.882;2022-07-23T08:30:37;3.67;;;1.92;;
71856;SDS011;59712;46.980;28.882;2022-07-23T08:33:08;3.83;;;2.17;;
71856;SDS011;59712;46.980;28.882;2022-07-23T08:35:57;4.28;;;2.67;;
71856;SDS011;59712;46.980;28.882;2022-07-23T08:38:25;3.92;;;2.47;;
71856;SDS011;59712;46.980;28.882;2022-07-23T08:40:53;3.03;;;2.15;;
71856;SDS011;59712;46.980;28.882;2022-07-23T08:43:23;2.78;;;2.53;;
71856;SDS011;59712;46.980;28.882;2022-07-23T08:45:54;5.63;;;2.58;;
71856;SDS011;59712;46.980;28.882;2022-07-23T08:48:25;4.15;;;3.05;;
71856;SDS011;59712;46.980;28.882;2022-07-23T08:50:55;3.60;;;2.42;;
71856;SDS011;59712;46.980;28.882;2022-07-23T08:53:24;3.67;;;2.53;;
71856;SDS011;59712;46.980;28.882;2022-07-23T08:55:57;5.28;;;2.78;;
71856;SDS011;59712;46.980;28.882;2022-07-23T08:58:25;5.65;;;2.63;;
71856;SDS011;59712;46.980;28.882;2022-07-23T09:00:55;5.03;;;3.10;;
71856;SDS011;59712;46.980;28.882;2022-07-23T09:03:36;3.25;;;2.65;;
71856;SDS011;59712;46.980;28.882;2022-07-23T09:06:14;6.43;;;2.75;;
71856;SDS011;59712;46.980;28.882;2022-07-23T09:08:44;4.78;;;2.92;;
71856;SDS011;59712;46.980;28.882;2022-07-23T09:11:16;5.55;;;2.60;;
71856;SDS011;59712;46.980;28.882;2022-07-23T09:13:50;3.28;;;2.97;;
71856;SDS011;59712;46.980;28.882;2022-07-23T09:16:34;8.73;;;3.08;;
71856;SDS011;59712;46.980;28.882;2022-07-23T09:19:05;5.25;;;2.92;;
71856;SDS011;59712;46.980;28.882;2022-07-23T09:21:34;6.30;;;3.67;;
71856;SDS011;59712;46.980;28.882;2022-07-23T09:24:12;5.63;;;2.80;;
71856;SDS011;59712;46.980;28.882;2022-07-23T09:26:50;6.40;;;2.80;;
71856;SDS011;59712;46.980;28.882;2022-07-23T09:29:35;4.15;;;2.55;;
71856;SDS011;59712;46.980;28.882;2022-07-23T09:32:36;5.30;;;3.28;;
71856;SDS011;59712;46.980;28.882;2022-07-23T09:35:03;6.63;;;2.67;;
71856;SDS011;59712;46.980;28.882;2022-07-23T09:37:33;5.03;;;2.78;;
71856;SDS011;59712;46.980;28.882;2022-07-23T09:40:08;6.32;;;3.00;;
71856;SDS011;59712;46.980;28.882;2022-07-23T09:42:40;4.03;;;3.15;;
71856;SDS011;59712;46.980;28.882;2022-07-23T09:45:10;9.65;;;2.80;;
71856;SDS011;59712;46.980;28.882;2022-07-23T09:47:39;3.55;;;2.85;;
71856;SDS011;59712;46.980;28.882;2022-07-23T09:50:08;6.60;;;2.90;;
71856;SDS011;59712;46.980;28.882;2022-07-23T09:52:46;4.60;;;2.30;;
71856;SDS011;59712;46.980;28.882;2022-07-23T09:55:18;3.58;;;2.53;;
71856;SDS011;59712;46.980;28.882;2022-07-23T09:57:51;4.13;;;2.60;;
71856;SDS011;59712;46.980;28.882;2022-07-23T10:00:21;6.38;;;2.67;;
71856;SDS011;59712;46.980;28.882;2022-07-23T10:02:50;20.23;;;3.65;;
71856;SDS011;59712;46.980;28.882;2022-07-23T10:05:33;8.70;;;3.33;;
71856;SDS011;59712;46.980;28.882;2022-07-23T10:08:07;5.82;;;3.00;;
71856;SDS011;59712;46.980;28.882;2022-07-23T10:10:48;5.13;;;2.33;;
71856;SDS011;59712;46.980;28.882;2022-07-23T10:13:42;2.35;;;2.15;;
71856;SDS011;59712;46.980;28.882;2022-07-23T10:16:23;2.42;;;2.22;;
71856;SDS011;59712;46.980;28.882;2022-07-23T10:18:55;4.60;;;2.83;;
71856;SDS011;59712;46.980;28.882;2022-07-23T10:21:40;3.55;;;2.33;;
71856;SDS011;59712;46.980;28.882;2022-07-23T10:26:53;5.00;;;2.20;;
71856;SDS011;59712;46.980;28.882;2022-07-23T10:29:47;2.55;;;1.98;;
71856;SDS011;59712;46.980;28.882;2022-07-23T10:35:16;3.60;;;2.00;;
71856;SDS011;59712;46.980;28.882;2022-07-23T10:37:56;5.72;;;2.13;;
71856;SDS011;59712;46.980;28.882;2022-07-23T10:40:30;3.28;;;1.85;;
71856;SDS011;59712;46.980;28.882;2022-07-23T10:42:59;3.05;;;1.75;;
71856;SDS011;59712;46.980;28.882;2022-07-23T10:59:29;3.55;;;1.80;;
71856;SDS011;59712;46.980;28.882;2022-07-23T11:02:22;8.90;;;2.75;;
71856;SDS011;59712;46.980;28.882;2022-07-23T11:04:51;5.13;;;2.63;;
71856;SDS011;59712;46.980;28.882;2022-07-23T11:07:28;6.57;;;2.13;;
71856;SDS011;59712;46.980;28.882;2022-07-23T11:10:39;4.43;;;2.55;;
71856;SDS011;59712;46.980;28.882;2022-07-23T11:13:42;4.47;;;1.90;;
71856;SDS011;59712;46.980;28.882;2022-07-23T11:16:15;3.15;;;1.92;;
71856;SDS011;59712;46.980;28.882;2022-07-23T11:32:03;3.13;;;1.92;;
71856;SDS011;59712;46.980;28.882;2022-07-23T11:34:48;3.15;;;1.98;;
71856;SDS011;59712;46.980;28.882;2022-07-23T11:40:04;4.72;;;2.00;;
71856;SDS011;59712;46.980;28.882;2022-07-23T11:45:06;1.55;;;1.45;;
71856;SDS011;59712;46.980;28.882;2022-07-23T11:47:35;3.58;;;1.83;;
71856;SDS011;59712;46.980;28.882;2022-07-23T11:50:03;1.73;;;1.48;;
71856;SDS011;59712;46.980;28.882;2022-07-23T11:52:33;3.22;;;1.73;;
71856;SDS011;59712;46.980;28.882;2022-07-23T11:58:05;2.17;;;1.42;;
71856;SDS011;59712;46.980;28.882;2022-07-23T12:00:46;3.97;;;1.90;;
71856;SDS011;59712;46.980;28.882;2022-07-23T12:03:13;4.65;;;1.73;;
71856;SDS011;59712;46.980;28.882;2022-07-23T12:05:41;3.88;;;1.92;;
71856;SDS011;59712;46.980;28.882;2022-07-23T12:08:08;4.18;;;1.88;;
71856;SDS011;59712;46.980;28.882;2022-07-23T12:10:41;4.55;;;1.98;;
71856;SDS011;59712;46.980;28.882;2022-07-23T12:15:47;2.17;;;1.85;;
71856;SDS011;59712;46.980;28.882;2022-07-23T12:18:22;4.05;;;1.98;;
71856;SDS011;59712;46.980;28.882;2022-07-23T12:21:03;3.10;;;1.67;;
71856;SDS011;59712;46.980;28.882;2022-07-23T12:23:37;4.72;;;2.05;;
71856;SDS011;59712;46.980;28.882;2022-07-23T12:26:04;2.53;;;2.13;;
71856;SDS011;59712;46.980;28.882;2022-07-23T12:28:36;3.63;;;1.77;;
71856;SDS011;59712;46.980;28.882;2022-07-23T12:31:06;3.35;;;1.73;;
71856;SDS011;59712;46.980;28.882;2022-07-23T12:33:38;3.22;;;1.77;;
71856;SDS011;59712;46.980;28.882;2022-07-23T12:36:07;2.63;;;1.90;;
71856;SDS011;59712;46.980;28.882;2022-07-23T12:38:36;4.00;;;1.60;;
71856;SDS011;59712;46.980;28.882;2022-07-23T12:41:10;3.70;;;1.85;;
71856;SDS011;59712;46.980;28.882;2022-07-23T12:43:41;5.18;;;2.10;;
71856;SDS011;59712;46.980;28.882;2022-07-23T12:51:26;3.72;;;1.60;;
71856;SDS011;59712;46.980;28.882;2022-07-23T12:53:58;2.85;;;1.95;;
71856;SDS011;59712;46.980;28.882;2022-07-23T12:56:27;2.72;;;1.88;;
71856;SDS011;59712;46.980;28.882;2022-07-23T12:58:57;2.72;;;1.80;;
71856;SDS011;59712;46.980;28.882;2022-07-23T13:01:32;2.30;;;1.80;;
71856;SDS011;59712;46.980;28.882;2022-07-23T13:04:04;2.33;;;1.60;;
71856;SDS011;59712;46.980;28.882;2022-07-23T13:06:44;3.30;;;1.67;;
71856;SDS011;59712;46.980;28.882;2022-07-23T13:09:27;4.68;;;1.73;;
71856;SDS011;59712;46.980;28.882;2022-07-23T13:11:59;3.25;;;2.47;;
71856;SDS011;59712;46.980;28.882;2022-07-23T13:14:28;2.72;;;1.85;;
71856;SDS011;59712;46.980;28.882;2022-07-23T13:17:23;3.38;;;1.90;;
71856;SDS011;59712;46.980;28.882;2022-07-23T13:19:50;4.95;;;2.20;;
71856;SDS011;59712;46.980;28.882;2022-07-23T13:22:30;5.10;;;2.20;;
71856;SDS011;59712;46.980;28.882;2022-07-23T13:24:57;2.58;;;1.75;;
71856;SDS011;59712;46.980;28.882;2022-07-23T13:27:42;2.72;;;2.13;;
71856;SDS011;59712;46.980;28.882;2022-07-23T13:30:10;6.25;;;3.03;;
71856;SDS011;59712;46.980;28.882;2022-07-23T13:32:42;3.60;;;2.13;;
71856;SDS011;59712;46.980;28.882;2022-07-23T13:35:10;5.55;;;2.15;;
71856;SDS011;59712;46.980;28.882;2022-07-23T13:37:46;4.75;;;2.30;;
71856;SDS011;59712;46.980;28.882;2022-07-23T13:40:13;3.33;;;2.40;;
71856;SDS011;59712;46.980;28.882;2022-07-23T13:42:44;3.25;;;2.17;;
71856;SDS011;59712;46.980;28.882;2022-07-23T13:45:11;2.78;;;2.15;;
71856;SDS011;59712;46.980;28.882;2022-07-23T13:47:42;4.38;;;2.22;;
71856;SDS011;59712;46.980;28.882;2022-07-23T13:50:11;2.90;;;1.70;;
71856;SDS011;59712;46.980;28.882;2022-07-23T13:52:40;2.08;;;1.65;;
71856;SDS011;59712;46.980;28.882;2022-07-23T13:55:07;6.18;;;1.65;;
71856;SDS011;59712;46.980;28.882;2022-07-23T13:57:35;3.08;;;2.05;;
71856;SDS011;59712;46.980;28.882;2022-07-23T14:00:05;4.13;;;1.90;;
71856;SDS011;59712;46.980;28.882;2022-07-23T14:02:36;4.30;;;1.92;;
71856;SDS011;59712;46.980;28.882;2022-07-23T14:05:06;3.10;;;2.00;;
71856;SDS011;59712;46.980;28.882;2022-07-23T14:07:37;6.00;;;2.05;;
71856;SDS011;59712;46.980;28.882;2022-07-23T14:10:07;3.67;;;1.83;;
71856;SDS011;59712;46.980;28.882;2022-07-23T14:12:35;8.45;;;2.20;;
71856;SDS011;59712;46.980;28.882;2022-07-23T14:15:04;4.43;;;1.67;;
71856;SDS011;59712;46.980;28.882;2022-07-23T14:17:40;5.75;;;2.00;;
71856;SDS011;59712;46.980;28.882;2022-07-23T14:20:09;3.20;;;1.80;;
71856;SDS011;59712;46.980;28.882;2022-07-23T14:22:39;2.97;;;1.98;;
71856;SDS011;59712;46.980;28.882;2022-07-23T14:25:08;3.10;;;2.10;;
71856;SDS011;59712;46.980;28.882;2022-07-23T14:27:36;3.83;;;1.80;;
71856;SDS011;59712;46.980;28.882;2022-07-23T14:30:04;2.33;;;1.70;;
71856;SDS011;59712;46.980;28.882;2022-07-23T14:32:33;1.60;;;1.48;;
71856;SDS011;59712;46.980;28.882;2022-07-23T14:35:01;2.42;;;1.67;;
71856;SDS011;59712;46.980;28.882;2022-07-23T14:37:31;4.35;;;2.00;;
71856;SDS011;59712;46.980;28.882;2022-07-23T14:39:59;5.80;;;2.08;;
71856;SDS011;59712;46.980;28.882;2022-07-23T14:42:30;5.30;;;2.03;;
71856;SDS011;59712;46.980;28.882;2022-07-23T14:44:58;2.92;;;1.77;;
71856;SDS011;59712;46.980;28.882;2022-07-23T14:47:31;3.80;;;2.25;;
71856;SDS011;59712;46.980;28.882;2022-07-23T14:49:58;3.33;;;1.65;;
71856;SDS011;59712;46.980;28.882;2022-07-23T14:52:25;4.97;;;2.00;;
71856;SDS011;59712;46.980;28.882;2022-07-23T14:57:20;5.15;;;2.70;;
71856;SDS011;59712;46.980;28.882;2022-07-23T14:59:54;4.45;;;2.67;;
71856;SDS011;59712;46.980;28.882;2022-07-23T15:02:23;2.28;;;1.65;;
71856;SDS011;59712;46.980;28.882;2022-07-23T15:04:50;2.70;;;2.00;;
71856;SDS011;59712;46.980;28.882;2022-07-23T15:07:17;2.60;;;1.73;;
71856;SDS011;59712;46.980;28.882;2022-07-23T15:09:46;3.55;;;1.80;;
71856;SDS011;59712;46.980;28.882;2022-07-23T15:12:14;3.33;;;1.98;;
71856;SDS011;59712;46.980;28.882;2022-07-23T15:14:41;4.60;;;2.03;;
71856;SDS011;59712;46.980;28.882;2022-07-23T15:17:09;3.33;;;2.20;;
71856;SDS011;59712;46.980;28.882;2022-07-23T15:19:47;2.63;;;1.90;;
71856;SDS011;59712;46.980;28.882;2022-07-23T15:22:16;6.65;;;2.10;;
71856;SDS011;59712;46.980;28.882;2022-07-23T15:24:43;3.97;;;1.67;;
71856;SDS011;59712;46.980;28.882;2022-07-23T15:27:11;3.63;;;2.08;;
71856;SDS011;59712;46.980;28.882;2022-07-23T15:29:39;3.47;;;2.00;;
71856;SDS011;59712;46.980;28.882;2022-07-23T15:32:06;2.92;;;1.67;;
71856;SDS011;59712;46.980;28.882;2022-07-23T15:34:36;5.22;;;2.15;;
71856;SDS011;59712;46.980;28.882;2022-07-23T15:37:05;2.35;;;1.80;;
71856;SDS011;59712;46.980;28.882;2022-07-23T15:39:39;4.15;;;1.75;;
71856;SDS011;59712;46.980;28.882;2022-07-23T15:42:07;6.95;;;2.33;;
71856;SDS011;59712;46.980;28.882;2022-07-23T15:47:26;5.97;;;2.35;;
71856;SDS011;59712;46.980;28.882;2022-07-23T15:49:54;2.78;;;1.98;;
71856;SDS011;59712;46.980;28.882;2022-07-23T15:52:21;6.07;;;1.83;;
71856;SDS011;59712;46.980;28.882;2022-07-23T15:54:49;7.22;;;1.88;;
71856;SDS011;59712;46.980;28.882;2022-07-23T15:57:16;4.85;;;1.80;;
71856;SDS011;59712;46.980;28.882;2022-07-23T15:59:45;4.05;;;2.10;;
71856;SDS011;59712;46.980;28.882;2022-07-23T16:02:13;5.65;;;2.38;;
71856;SDS011;59712;46.980;28.882;2022-07-23T16:04:47;3.30;;;1.92;;
71856;SDS011;59712;46.980;28.882;2022-07-23T16:07:14;4.90;;;1.92;;